Time;durP1;ratioP1;P1;durP2;ratioP2;P2;SDS_P1;SDS_P2;PMS_P1;PMS_P2;Temp;Humidity;BMP_temperature;BMP_pressure;BME280_temperature;BME280_humidity;BME280_pressure;Samples;Min_cycle;Max_cycle;Signal;HPM_P1;HPM_P2
2021/07/27 00:02:03;;;;;;;1.80;1.70;;;;;;;;;;5028287;28;20025;-66
2021/07/27 00:04:29;;;;;;;3.38;1.77;;;;;;;;;;5027575;28;20061;-67
2021/07/27 00:06:55;;;;;;;1.80;1.70;;;;;;;;;;5031968;28;20439;-67
2021/07/27 00:09:21;;;;;;;1.92;1.73;;;;;;;;;;5048654;28;20039;-67
2021/07/27 00:11:47;;;;;;;2.53;1.75;;;;;;;;;;5048754;28;20033;-67
2021/07/27 00:14:14;;;;;;;3.05;1.95;;;;;;;;;;5047947;28;20029;-67
2021/07/27 00:16:40;;;;;;;2.53;1.77;;;;;;;;;;5046820;28;20029;-66
2021/07/27 00:19:06;;;;;;;2.22;1.80;;;;;;;;;;5048036;28;20099;-66
2021/07/27 00:21:33;;;;;;;3.35;2.00;;;;;;;;;;5047998;28;20052;-66
2021/07/27 00:23:59;;;;;;;3.08;2.20;;;;;;;;;;5047448;28;20067;-66
2021/07/27 00:26:25;;;;;;;2.47;2.05;;;;;;;;;;5046987;28;20360;-66
2021/07/27 00:28:51;;;;;;;2.15;1.90;;;;;;;;;;5047277;28;20021;-66
2021/07/27 00:31:19;;;;;;;2.55;1.73;;;;;;;;;;5048051;28;20025;-66
2021/07/27 00:33:46;;;;;;;1.73;1.63;;;;;;;;;;5047624;28;20029;-66
2021/07/27 00:36:12;;;;;;;1.92;1.67;;;;;;;;;;5047546;28;20021;-67
2021/07/27 00:38:38;;;;;;;1.95;1.55;;;;;;;;;;5046236;28;20406;-66
2021/07/27 00:41:04;;;;;;;2.63;1.90;;;;;;;;;;5045770;28;20033;-66
2021/07/27 00:43:31;;;;;;;2.28;1.90;;;;;;;;;;5046320;28;20474;-66
2021/07/27 00:45:57;;;;;;;1.83;1.65;;;;;;;;;;5046394;28;20033;-66
2021/07/27 00:48:23;;;;;;;2.92;2.00;;;;;;;;;;5044948;28;20183;-65
2021/07/27 00:50:49;;;;;;;2.80;1.70;;;;;;;;;;5047623;28;20475;-66
2021/07/27 00:53:15;;;;;;;2.35;1.98;;;;;;;;;;5047226;28;20116;-66
2021/07/27 00:55:41;;;;;;;2.58;2.00;;;;;;;;;;5046923;28;20013;-66
2021/07/27 00:58:07;;;;;;;2.33;1.85;;;;;;;;;;5045954;28;20118;-66
2021/07/27 01:00:34;;;;;;;1.85;1.65;;;;;;;;;;5047114;28;20110;-66
2021/07/27 01:03:00;;;;;;;3.05;2.40;;;;;;;;;;5046911;28;20818;-66
2021/07/27 01:05:26;;;;;;;1.98;1.63;;;;;;;;;;5046842;28;20107;-66
2021/07/27 01:07:53;;;;;;;1.92;1.80;;;;;;;;;;5045535;28;20029;-67
2021/07/27 01:10:20;;;;;;;2.08;1.70;;;;;;;;;;5041472;28;20026;-66
2021/07/27 01:12:47;;;;;;;2.38;1.77;;;;;;;;;;5026893;28;20029;-66
2021/07/27 01:15:13;;;;;;;2.00;1.55;;;;;;;;;;5026992;28;20036;-66
2021/07/27 01:17:40;;;;;;;2.15;1.77;;;;;;;;;;5025981;28;20063;-66
2021/07/27 01:44:03;;;;;;;2.22;2.00;;;;;;;;;;5026414;28;20068;-66
2021/07/27 01:46:36;;;;;;;2.53;1.80;;;;;;;;;;5025888;28;20069;-66
2021/07/27 01:49:05;;;;;;;2.15;1.92;;;;;;;;;;5026597;28;20029;-66
2021/07/27 01:51:42;;;;;;;2.65;2.25;;;;;;;;;;5026042;28;20027;-66
2021/07/27 01:54:12;;;;;;;2.40;2.00;;;;;;;;;;5026047;28;20116;-66
2021/07/27 01:56:39;;;;;;;2.15;1.90;;;;;;;;;;5035496;28;20544;-66
2021/07/27 01:59:06;;;;;;;3.05;2.00;;;;;;;;;;5045769;28;20028;-66
2021/07/27 02:01:32;;;;;;;1.45;1.35;;;;;;;;;;5045430;28;20055;-66
2021/07/27 02:03:58;;;;;;;2.03;1.65;;;;;;;;;;5044299;28;20025;-66
2021/07/27 02:06:24;;;;;;;1.65;1.42;;;;;;;;;;5044709;28;20068;-66
2021/07/27 02:08:51;;;;;;;1.70;1.60;;;;;;;;;;5047037;28;20028;-66
2021/07/27 02:11:20;;;;;;;2.92;1.70;;;;;;;;;;5046070;28;20114;-66
2021/07/27 02:13:51;;;;;;;1.58;1.40;;;;;;;;;;5045605;28;20506;-66
2021/07/27 02:16:18;;;;;;;1.95;1.60;;;;;;;;;;5038735;28;20056;-65
2021/07/27 02:18:45;;;;;;;2.42;1.88;;;;;;;;;;5025574;28;20091;-65
2021/07/27 02:21:11;;;;;;;2.08;1.52;;;;;;;;;;5025636;28;20041;-66
2021/07/27 02:23:38;;;;;;;2.08;1.85;;;;;;;;;;5036204;28;20375;-66
2021/07/27 02:26:04;;;;;;;1.92;1.73;;;;;;;;;;5044423;28;20318;-66
2021/07/27 02:28:33;;;;;;;2.25;1.80;;;;;;;;;;5045318;28;20029;-66
2021/07/27 02:31:01;;;;;;;2.42;1.67;;;;;;;;;;5045536;28;20029;-66
2021/07/27 02:33:35;;;;;;;2.97;2.00;;;;;;;;;;5045107;28;20040;-67
2021/07/27 02:36:01;;;;;;;2.08;1.88;;;;;;;;;;5044494;28;20108;-67
2021/07/27 02:38:27;;;;;;;1.90;1.70;;;;;;;;;;5045111;28;20118;-67
2021/07/27 02:40:53;;;;;;;1.70;1.60;;;;;;;;;;5043727;28;20483;-66
2021/07/27 02:43:19;;;;;;;2.45;1.90;;;;;;;;;;5046051;28;20110;-66
2021/07/27 02:45:46;;;;;;;2.72;2.17;;;;;;;;;;5042349;28;20037;-66
2021/07/27 02:48:12;;;;;;;2.22;1.75;;;;;;;;;;5025471;28;20026;-66
2021/07/27 02:50:38;;;;;;;2.10;1.60;;;;;;;;;;5024518;28;20029;-66
2021/07/27 02:53:04;;;;;;;2.92;1.75;;;;;;;;;;5025214;28;20021;-66
2021/07/27 02:55:30;;;;;;;3.35;1.95;;;;;;;;;;5024860;28;20040;-66
2021/07/27 02:57:56;;;;;;;2.75;1.80;;;;;;;;;;5024874;28;20025;-66
2021/07/27 03:00:22;;;;;;;2.13;1.88;;;;;;;;;;5024836;28;20411;-66
2021/07/27 03:02:48;;;;;;;2.92;2.08;;;;;;;;;;5026002;28;20033;-66
2021/07/27 03:05:15;;;;;;;2.58;2.03;;;;;;;;;;5025210;28;20029;-66
2021/07/27 03:12:47;;;;;;;2.35;1.88;;;;;;;;;;5048244;28;20025;-66
2021/07/27 03:15:14;;;;;;;2.47;1.80;;;;;;;;;;5049040;28;20036;-65
2021/07/27 03:17:40;;;;;;;2.28;2.05;;;;;;;;;;5031794;28;20104;-65
2021/07/27 03:20:06;;;;;;;2.08;1.88;;;;;;;;;;5028996;28;20129;-65
2021/07/27 03:22:32;;;;;;;2.70;2.20;;;;;;;;;;5028262;28;20045;-66
2021/07/27 03:24:58;;;;;;;2.45;1.83;;;;;;;;;;5029145;28;20163;-66
2021/07/27 03:27:24;;;;;;;2.28;1.80;;;;;;;;;;5041869;28;20507;-66
2021/07/27 03:29:50;;;;;;;1.65;1.55;;;;;;;;;;5049406;28;20124;-66
2021/07/27 03:32:16;;;;;;;2.67;2.03;;;;;;;;;;5048852;28;20609;-66
2021/07/27 03:34:42;;;;;;;1.90;1.67;;;;;;;;;;5048516;28;20120;-65
2021/07/27 03:37:15;;;;;;;1.90;1.60;;;;;;;;;;5035009;28;20049;-66
2021/07/27 03:39:41;;;;;;;2.22;1.80;;;;;;;;;;5027173;28;20079;-66
2021/07/27 03:42:11;;;;;;;1.77;1.55;;;;;;;;;;5028934;28;20426;-65
2021/07/27 03:44:37;;;;;;;2.67;2.15;;;;;;;;;;5028213;28;20029;-65
2021/07/27 03:47:03;;;;;;;2.15;1.50;;;;;;;;;;5028428;28;20021;-65
2021/07/27 03:49:30;;;;;;;3.33;1.85;;;;;;;;;;5048143;28;20026;-65
2021/07/27 03:51:56;;;;;;;4.18;1.52;;;;;;;;;;5048540;28;20064;-65
2021/07/27 03:54:23;;;;;;;2.47;2.10;;;;;;;;;;5048297;28;20024;-65
2021/07/27 03:56:50;;;;;;;2.03;1.83;;;;;;;;;;5047600;28;20029;-65
2021/07/27 03:59:16;;;;;;;1.95;1.67;;;;;;;;;;5048196;28;20056;-65
2021/07/27 04:01:42;;;;;;;2.67;2.13;;;;;;;;;;5048090;28;21020;-65
2021/07/27 04:04:09;;;;;;;1.88;1.77;;;;;;;;;;5048001;28;20021;-65
2021/07/27 04:06:35;;;;;;;2.15;1.70;;;;;;;;;;5046414;28;20033;-66
2021/07/27 04:09:02;;;;;;;2.58;2.00;;;;;;;;;;5048164;28;20399;-65
2021/07/27 04:11:28;;;;;;;3.03;2.17;;;;;;;;;;5047725;28;20029;-65
2021/07/27 04:13:54;;;;;;;2.03;1.63;;;;;;;;;;5048222;28;20021;-65
2021/07/27 04:16:20;;;;;;;2.85;1.95;;;;;;;;;;5046065;28;20498;-65
2021/07/27 04:18:49;;;;;;;1.95;1.70;;;;;;;;;;5047660;28;20025;-65
2021/07/27 04:21:15;;;;;;;1.90;1.70;;;;;;;;;;5047842;28;20041;-65
2021/07/27 04:23:41;;;;;;;1.90;1.60;;;;;;;;;;5047072;28;20033;-65
2021/07/27 04:26:07;;;;;;;2.42;2.00;;;;;;;;;;5046375;28;20414;-65
2021/07/27 04:28:33;;;;;;;1.70;1.50;;;;;;;;;;5047734;28;20037;-65
2021/07/27 04:30:59;;;;;;;1.90;1.52;;;;;;;;;;5047694;28;20029;-66
2021/07/27 04:33:28;;;;;;;2.13;1.90;;;;;;;;;;5047307;28;20035;-65
2021/07/27 04:35:54;;;;;;;2.00;1.80;;;;;;;;;;5047872;28;20040;-65
2021/07/27 04:38:23;;;;;;;2.13;1.90;;;;;;;;;;5028856;28;20060;-65
2021/07/27 04:40:56;;;;;;;2.70;2.08;;;;;;;;;;5028116;28;20029;-66
2021/07/27 04:43:22;;;;;;;2.67;2.30;;;;;;;;;;5027619;28;20037;-65
2021/07/27 04:45:49;;;;;;;2.40;1.90;;;;;;;;;;5026714;28;20407;-65
2021/07/27 04:48:15;;;;;;;1.85;1.63;;;;;;;;;;5027830;28;20025;-65
2021/07/27 04:50:44;;;;;;;1.80;1.50;;;;;;;;;;5027157;28;20399;-65
2021/07/27 04:53:10;;;;;;;1.95;1.75;;;;;;;;;;5027189;28;20029;-65
2021/07/27 04:55:36;;;;;;;3.42;1.58;;;;;;;;;;5044281;28;20491;-65
2021/07/27 04:58:05;;;;;;;2.42;1.80;;;;;;;;;;5027515;28;20040;-66
2021/07/27 05:00:31;;;;;;;2.25;1.77;;;;;;;;;;5027285;28;20036;-66
2021/07/27 05:02:58;;;;;;;2.30;1.95;;;;;;;;;;5026757;28;20036;-66
2021/07/27 05:05:26;;;;;;;2.28;1.60;;;;;;;;;;5027069;28;20381;-66
2021/07/27 05:07:53;;;;;;;2.22;1.80;;;;;;;;;;5027618;28;20029;-66
2021/07/27 05:10:19;;;;;;;1.73;1.63;;;;;;;;;;5027517;28;20072;-66
2021/07/27 05:12:46;;;;;;;1.95;1.58;;;;;;;;;;5026327;28;20125;-66
2021/07/27 05:15:13;;;;;;;2.58;1.70;;;;;;;;;;5040339;28;20029;-65
2021/07/27 05:17:39;;;;;;;1.67;1.58;;;;;;;;;;5029350;28;20120;-65
2021/07/27 05:20:06;;;;;;;2.38;1.70;;;;;;;;;;5026874;28;20498;-65
2021/07/27 05:22:33;;;;;;;1.65;1.55;;;;;;;;;;5041316;28;20123;-65
2021/07/27 05:25:00;;;;;;;3.50;2.38;;;;;;;;;;5046845;28;20499;-66
2021/07/27 05:27:26;;;;;;;2.13;1.92;;;;;;;;;;5041779;28;20119;-67
2021/07/27 05:29:54;;;;;;;2.05;1.70;;;;;;;;;;5026222;28;20461;-67
2021/07/27 05:32:20;;;;;;;2.22;1.95;;;;;;;;;;5034762;28;20029;-68
2021/07/27 05:34:46;;;;;;;2.10;1.90;;;;;;;;;;5045272;28;20032;-68
2021/07/27 05:37:12;;;;;;;2.20;2.00;;;;;;;;;;5047791;28;20111;-68
2021/07/27 05:39:38;;;;;;;2.45;1.77;;;;;;;;;;5047367;28;20063;-68
2021/07/27 05:42:04;;;;;;;2.33;1.92;;;;;;;;;;5047643;28;20028;-67
2021/07/27 05:44:30;;;;;;;2.28;2.08;;;;;;;;;;5041477;28;20028;-67
2021/07/27 05:46:57;;;;;;;2.78;1.70;;;;;;;;;;5027488;28;20208;-67
2021/07/27 05:49:25;;;;;;;1.95;1.75;;;;;;;;;;5040853;28;20078;-67
2021/07/27 05:51:52;;;;;;;1.92;1.70;;;;;;;;;;5046839;28;20032;-67
2021/07/27 05:54:21;;;;;;;2.30;1.90;;;;;;;;;;5048073;28;20028;-67
2021/07/27 05:56:50;;;;;;;2.65;1.98;;;;;;;;;;5047630;28;20032;-68
2021/07/27 05:59:16;;;;;;;2.55;2.20;;;;;;;;;;5033727;28;20035;-68
2021/07/27 06:01:43;;;;;;;2.88;2.30;;;;;;;;;;5036629;28;20121;-68
2021/07/27 06:04:09;;;;;;;2.67;2.08;;;;;;;;;;5047627;28;20021;-69
2021/07/27 06:06:36;;;;;;;2.17;1.83;;;;;;;;;;5046862;28;20506;-68
2021/07/27 06:09:03;;;;;;;1.70;1.55;;;;;;;;;;5047224;28;20087;-68
2021/07/27 06:11:30;;;;;;;2.17;1.65;;;;;;;;;;5045402;28;20417;-68
2021/07/27 06:13:56;;;;;;;1.98;1.60;;;;;;;;;;5045347;28;20037;-68
2021/07/27 06:16:22;;;;;;;2.70;1.77;;;;;;;;;;5032630;28;20053;-68
2021/07/27 06:18:48;;;;;;;2.17;1.60;;;;;;;;;;5037894;28;20112;-68
2021/07/27 06:21:14;;;;;;;2.10;1.75;;;;;;;;;;5033899;28;20048;-67
2021/07/27 06:23:40;;;;;;;2.28;1.80;;;;;;;;;;5029588;28;20210;-67
2021/07/27 06:26:06;;;;;;;1.85;1.50;;;;;;;;;;5029828;28;20173;-67
2021/07/27 06:28:33;;;;;;;2.08;1.75;;;;;;;;;;5033873;28;20059;-68
2021/07/27 06:30:59;;;;;;;2.15;1.70;;;;;;;;;;5046539;28;20517;-68
2021/07/27 06:33:25;;;;;;;1.80;1.58;;;;;;;;;;5029267;28;20041;-68
2021/07/27 06:35:58;;;;;;;2.22;1.52;;;;;;;;;;5027567;28;20505;-69
2021/07/27 06:38:25;;;;;;;2.03;1.80;;;;;;;;;;5026288;28;20029;-65
2021/07/27 06:40:51;;;;;;;1.80;1.60;;;;;;;;;;5026932;28;20029;-66
2021/07/27 06:43:18;;;;;;;2.10;1.67;;;;;;;;;;5027341;28;20030;-65
2021/07/27 06:45:51;;;;;;;2.15;1.77;;;;;;;;;;5025272;28;20025;-66
2021/07/27 06:48:17;;;;;;;2.13;1.90;;;;;;;;;;5028719;28;20029;-64
2021/07/27 06:50:43;;;;;;;1.90;1.73;;;;;;;;;;5029140;28;20029;-65
2021/07/27 06:53:09;;;;;;;1.40;1.30;;;;;;;;;;5032485;28;20017;-64
2021/07/27 06:55:35;;;;;;;2.17;1.98;;;;;;;;;;5032456;28;20025;-65
2021/07/27 06:58:01;;;;;;;2.17;1.83;;;;;;;;;;5036352;28;20398;-65
2021/07/27 07:00:27;;;;;;;2.33;2.08;;;;;;;;;;5027787;28;20154;-65
2021/07/27 07:02:53;;;;;;;1.65;1.40;;;;;;;;;;5025345;28;20052;-65
2021/07/27 07:05:19;;;;;;;2.05;1.83;;;;;;;;;;5030978;28;20029;-65
2021/07/27 07:07:46;;;;;;;1.95;1.60;;;;;;;;;;5030477;28;20442;-65
2021/07/27 07:10:12;;;;;;;2.15;1.60;;;;;;;;;;5025893;28;20036;-65
2021/07/27 07:12:39;;;;;;;1.92;1.60;;;;;;;;;;5030113;28;20031;-65
2021/07/27 07:15:06;;;;;;;2.10;1.65;;;;;;;;;;5042521;28;21576;-65
2021/07/27 07:17:33;;;;;;;1.95;1.75;;;;;;;;;;5041181;28;20026;-65
2021/07/27 07:19:59;;;;;;;1.80;1.70;;;;;;;;;;5030656;28;20699;-65
2021/07/27 07:22:25;;;;;;;2.28;1.80;;;;;;;;;;5045363;28;20068;-64
2021/07/27 07:24:51;;;;;;;1.67;1.58;;;;;;;;;;5045353;28;20121;-64
2021/07/27 07:27:17;;;;;;;1.80;1.55;;;;;;;;;;5037046;28;20053;-64
2021/07/27 07:29:44;;;;;;;1.60;1.50;;;;;;;;;;5027515;28;20033;-64
2021/07/27 07:32:10;;;;;;;2.72;1.50;;;;;;;;;;5026887;28;20106;-67
2021/07/27 07:34:36;;;;;;;2.13;1.77;;;;;;;;;;5026926;28;20021;-67
2021/07/27 07:37:05;;;;;;;1.88;1.67;;;;;;;;;;5026916;28;20104;-66
2021/07/27 07:39:31;;;;;;;1.88;1.73;;;;;;;;;;5041225;28;20021;-66
2021/07/27 07:42:02;;;;;;;1.92;1.60;;;;;;;;;;5045764;28;20029;-66
2021/07/27 07:44:29;;;;;;;2.28;1.95;;;;;;;;;;5030866;28;20029;-66
2021/07/27 07:46:55;;;;;;;2.22;1.85;;;;;;;;;;5025630;28;20571;-66
2021/07/27 07:49:21;;;;;;;2.38;1.40;;;;;;;;;;5026720;28;20108;-67
2021/07/27 07:51:47;;;;;;;2.63;1.77;;;;;;;;;;5025898;28;20133;-67
2021/07/27 07:54:14;;;;;;;2.08;1.40;;;;;;;;;;5026074;28;20020;-66
2021/07/27 07:56:46;;;;;;;1.83;1.60;;;;;;;;;;5025405;28;20025;-66
2021/07/27 07:59:13;;;;;;;2.20;1.50;;;;;;;;;;5031365;28;20494;-67
2021/07/27 08:01:54;;;;;;;1.73;1.40;;;;;;;;;;5033210;28;20037;-66
2021/07/27 08:04:21;;;;;;;1.58;1.25;;;;;;;;;;5036918;28;20017;-67
2021/07/27 08:06:47;;;;;;;1.63;1.52;;;;;;;;;;5050125;28;20041;-67
2021/07/27 08:09:13;;;;;;;2.25;1.55;;;;;;;;;;5048227;28;20487;-67
2021/07/27 08:11:40;;;;;;;1.98;1.77;;;;;;;;;;5048256;28;20032;-67
2021/07/27 08:14:06;;;;;;;1.67;1.40;;;;;;;;;;5029353;28;20029;-67
2021/07/27 08:16:32;;;;;;;1.60;1.48;;;;;;;;;;5027619;28;20427;-67
2021/07/27 08:19:00;;;;;;;1.60;1.50;;;;;;;;;;5029390;28;20018;-66
2021/07/27 08:21:28;;;;;;;1.70;1.60;;;;;;;;;;5028541;28;20045;-67
2021/07/27 08:23:53;;;;;;;1.95;1.52;;;;;;;;;;5028742;28;20026;-65
2021/07/27 08:26:20;;;;;;;1.60;1.50;;;;;;;;;;5029126;28;20034;-66
2021/07/27 08:28:46;;;;;;;2.05;1.55;;;;;;;;;;5048574;28;20052;-67
2021/07/27 08:31:13;;;;;;;1.88;1.52;;;;;;;;;;5038373;28;20529;-68
2021/07/27 08:33:40;;;;;;;1.50;1.40;;;;;;;;;;5034018;28;20060;-67
2021/07/27 08:36:07;;;;;;;1.60;1.40;;;;;;;;;;5028900;28;20112;-68
2021/07/27 08:38:34;;;;;;;1.90;1.23;;;;;;;;;;5028767;28;20491;-68
2021/07/27 08:41:01;;;;;;;2.08;1.40;;;;;;;;;;5028276;28;20100;-67
2021/07/27 08:43:28;;;;;;;1.20;1.10;;;;;;;;;;5034631;28;20043;-66
2021/07/27 08:45:55;;;;;;;1.40;1.30;;;;;;;;;;5047983;28;20043;-67
2021/07/27 08:48:24;;;;;;;1.45;1.35;;;;;;;;;;5028979;28;20037;-65
2021/07/27 08:50:50;;;;;;;1.50;1.40;;;;;;;;;;5036687;28;20072;-65
2021/07/27 08:53:17;;;;;;;1.27;1.17;;;;;;;;;;5028791;28;20033;-65
2021/07/27 08:55:43;;;;;;;2.30;1.67;;;;;;;;;;5028108;28;20056;-65
2021/07/27 08:58:09;;;;;;;1.60;1.50;;;;;;;;;;5027142;28;20021;-65
2021/07/27 09:00:35;;;;;;;1.30;1.20;;;;;;;;;;5027032;28;20680;-65
2021/07/27 09:03:18;;;;;;;1.20;1.10;;;;;;;;;;5027494;28;20032;-65
2021/07/27 09:05:44;;;;;;;1.30;1.20;;;;;;;;;;5027481;28;20088;-65
2021/07/27 09:08:11;;;;;;;1.33;1.23;;;;;;;;;;5027105;28;20041;-66
2021/07/27 09:10:38;;;;;;;1.45;1.20;;;;;;;;;;5025253;28;20039;-65
2021/07/27 09:13:04;;;;;;;1.65;1.20;;;;;;;;;;5025402;28;20020;-66
2021/07/27 09:15:56;;;;;;;1.40;1.30;;;;;;;;;;5026908;28;20060;-66
2021/07/27 09:18:23;;;;;;;1.33;1.23;;;;;;;;;;5027224;28;20072;-64
2021/07/27 09:20:50;;;;;;;2.35;1.60;;;;;;;;;;5030975;28;20551;-64
2021/07/27 09:23:18;;;;;;;1.85;1.38;;;;;;;;;;5027852;28;20052;-63
2021/07/27 09:25:45;;;;;;;1.70;1.45;;;;;;;;;;5028003;28;20033;-65
2021/07/27 09:28:12;;;;;;;1.40;1.30;;;;;;;;;;5032421;28;20139;-67
2021/07/27 09:30:39;;;;;;;1.40;1.30;;;;;;;;;;5047757;28;20029;-67
2021/07/27 09:33:07;;;;;;;2.20;1.35;;;;;;;;;;5027768;28;20049;-67
2021/07/27 09:35:33;;;;;;;0.93;0.93;;;;;;;;;;5027687;28;20021;-67
2021/07/27 09:38:03;;;;;;;1.25;1.15;;;;;;;;;;5030636;28;20017;-67
2021/07/27 09:40:29;;;;;;;2.28;1.50;;;;;;;;;;5039116;28;20029;-67
2021/07/27 09:42:55;;;;;;;1.30;1.17;;;;;;;;;;5047334;28;20029;-68
2021/07/27 09:45:21;;;;;;;2.00;1.73;;;;;;;;;;5043957;28;20025;-68
2021/07/27 09:47:49;;;;;;;1.63;1.52;;;;;;;;;;5046654;28;20518;-67
2021/07/27 09:50:16;;;;;;;1.50;1.40;;;;;;;;;;5026593;28;20072;-67
2021/07/27 09:52:44;;;;;;;1.80;1.48;;;;;;;;;;5027467;28;20356;-68
2021/07/27 09:55:13;;;;;;;1.00;1.00;;;;;;;;;;5028447;28;20399;-68
2021/07/27 09:57:39;;;;;;;1.73;1.48;;;;;;;;;;5047354;28;20025;-69
2021/07/27 10:00:06;;;;;;;1.13;1.00;;;;;;;;;;5035265;28;20029;-71
2021/07/27 10:02:33;;;;;;;1.30;1.20;;;;;;;;;;5028248;28;20033;-69
2021/07/27 10:04:59;;;;;;;1.30;1.20;;;;;;;;;;5027300;28;20022;-68
2021/07/27 10:07:31;;;;;;;1.40;1.30;;;;;;;;;;5027031;28;20030;-68
2021/07/27 10:10:06;;;;;;;1.20;1.10;;;;;;;;;;5026700;28;20538;-68
2021/07/27 10:12:36;;;;;;;0.90;0.88;;;;;;;;;;5025475;28;20029;-68
2021/07/27 10:15:16;;;;;;;1.33;0.93;;;;;;;;;;5043476;28;20036;-67
2021/07/27 10:17:49;;;;;;;3.38;1.23;;;;;;;;;;5046494;28;20718;-67
2021/07/27 10:20:25;;;;;;;1.30;1.20;;;;;;;;;;5046505;28;20021;-67
2021/07/27 10:22:52;;;;;;;1.20;1.10;;;;;;;;;;5047084;28;20415;-68
2021/07/27 10:25:20;;;;;;;1.23;1.02;;;;;;;;;;5047291;28;20025;-67
2021/07/27 10:27:54;;;;;;;0.93;0.93;;;;;;;;;;5031745;28;20120;-68
2021/07/27 10:30:38;;;;;;;1.30;1.20;;;;;;;;;;5027132;28;20032;-69
2021/07/27 10:33:04;;;;;;;1.20;1.10;;;;;;;;;;5033779;28;20501;-67
2021/07/27 10:35:32;;;;;;;1.63;1.27;;;;;;;;;;5030691;28;20044;-69
2021/07/27 10:38:07;;;;;;;1.23;1.13;;;;;;;;;;5037998;28;20079;-68
2021/07/27 10:40:34;;;;;;;1.50;1.40;;;;;;;;;;5028053;28;20104;-69
2021/07/27 10:43:00;;;;;;;1.10;1.00;;;;;;;;;;5029941;28;20065;-69
2021/07/27 10:45:26;;;;;;;1.35;1.25;;;;;;;;;;5029944;28;20041;-68
2021/07/27 10:47:53;;;;;;;1.35;1.25;;;;;;;;;;5027036;28;20122;-69
2021/07/27 10:50:25;;;;;;;1.55;1.45;;;;;;;;;;5029043;28;20050;-65
2021/07/27 10:52:56;;;;;;;1.15;1.05;;;;;;;;;;5043952;28;20025;-64
2021/07/27 10:55:25;;;;;;;1.13;1.02;;;;;;;;;;5036125;28;20542;-64
2021/07/27 10:57:55;;;;;;;1.30;1.20;;;;;;;;;;5041330;28;20021;-65
2021/07/27 11:00:29;;;;;;;1.58;1.48;;;;;;;;;;5045575;28;20115;-65
2021/07/27 11:02:56;;;;;;;1.45;1.35;;;;;;;;;;5045782;28;20052;-66
2021/07/27 11:05:26;;;;;;;1.63;1.48;;;;;;;;;;5044758;28;20491;-65
2021/07/27 11:07:52;;;;;;;1.40;1.30;;;;;;;;;;5045431;28;20570;-65
2021/07/27 11:10:22;;;;;;;1.20;1.10;;;;;;;;;;5045404;28;20108;-65
2021/07/27 11:12:49;;;;;;;1.30;1.20;;;;;;;;;;5045614;28;20387;-65
2021/07/27 11:15:20;;;;;;;1.52;1.42;;;;;;;;;;5044979;28;20456;-64
2021/07/27 11:18:02;;;;;;;2.22;1.30;;;;;;;;;;5045063;28;20029;-65
2021/07/27 11:20:32;;;;;;;2.03;1.67;;;;;;;;;;5044611;28;20036;-64
2021/07/27 11:23:00;;;;;;;1.48;1.38;;;;;;;;;;5044577;28;20024;-64
2021/07/27 11:25:27;;;;;;;1.48;1.38;;;;;;;;;;5044637;28;20037;-65
2021/07/27 11:27:54;;;;;;;1.42;1.33;;;;;;;;;;5044860;28;20035;-65
2021/07/27 11:30:21;;;;;;;1.55;1.42;;;;;;;;;;5045377;28;20028;-65
2021/07/27 11:32:48;;;;;;;1.60;1.50;;;;;;;;;;5046713;28;20511;-65
2021/07/27 11:35:15;;;;;;;2.15;1.38;;;;;;;;;;5032841;28;20024;-65
2021/07/27 11:37:44;;;;;;;1.48;1.23;;;;;;;;;;5028737;28;20029;-64
2021/07/27 11:40:26;;;;;;;1.35;1.25;;;;;;;;;;5028695;28;20349;-64
2021/07/27 11:43:00;;;;;;;1.88;1.60;;;;;;;;;;5028951;28;20037;-64
2021/07/27 11:45:26;;;;;;;1.08;1.08;;;;;;;;;;5028641;28;20460;-65
2021/07/27 11:47:53;;;;;;;1.48;1.23;;;;;;;;;;5029002;28;20450;-64
2021/07/27 11:50:29;;;;;;;1.92;1.70;;;;;;;;;;5029063;28;20499;-64
2021/07/27 11:52:56;;;;;;;1.50;1.40;;;;;;;;;;5028686;28;20025;-64
2021/07/27 11:55:28;;;;;;;1.63;1.52;;;;;;;;;;5028193;28;20135;-62
2021/07/27 11:57:55;;;;;;;2.05;1.83;;;;;;;;;;5028482;28;20048;-62
2021/07/27 12:00:21;;;;;;;1.90;1.80;;;;;;;;;;5028732;28;20526;-63
2021/07/27 12:02:47;;;;;;;1.67;1.58;;;;;;;;;;5028742;28;20069;-64
2021/07/27 12:05:14;;;;;;;2.30;1.80;;;;;;;;;;5028376;28;20100;-64
2021/07/27 12:07:40;;;;;;;1.65;1.50;;;;;;;;;;5028175;28;20025;-64
2021/07/27 12:10:07;;;;;;;2.92;2.10;;;;;;;;;;5028003;28;20040;-63
2021/07/27 12:12:33;;;;;;;1.90;1.80;;;;;;;;;;5028114;28;20053;-64
2021/07/27 12:15:00;;;;;;;2.35;1.85;;;;;;;;;;5028227;28;20017;-63
2021/07/27 12:17:26;;;;;;;2.85;2.20;;;;;;;;;;5027888;28;20067;-62
2021/07/27 12:19:52;;;;;;;2.75;2.10;;;;;;;;;;5028319;28;20025;-63
2021/07/27 12:22:18;;;;;;;3.08;2.30;;;;;;;;;;5027912;28;20056;-63
2021/07/27 12:24:44;;;;;;;1.92;1.77;;;;;;;;;;5027741;28;20017;-64
2021/07/27 12:27:10;;;;;;;2.50;2.25;;;;;;;;;;5028008;28;20026;-63
2021/07/27 12:29:37;;;;;;;2.67;2.28;;;;;;;;;;5027741;28;20547;-64
2021/07/27 12:32:03;;;;;;;2.40;1.80;;;;;;;;;;5027576;28;20040;-64
2021/07/27 12:34:29;;;;;;;2.33;2.13;;;;;;;;;;5027360;28;20207;-66
2021/07/27 12:36:56;;;;;;;2.45;1.67;;;;;;;;;;5031686;28;20506;-62
2021/07/27 12:39:23;;;;;;;2.72;2.30;;;;;;;;;;5029643;28;20079;-64
2021/07/27 12:41:49;;;;;;;2.92;2.22;;;;;;;;;;5029752;28;20403;-64
2021/07/27 12:44:16;;;;;;;2.30;2.10;;;;;;;;;;5027871;28;20021;-64
2021/07/27 12:46:42;;;;;;;2.40;2.20;;;;;;;;;;5027347;28;20030;-64
2021/07/27 12:49:13;;;;;;;2.17;1.98;;;;;;;;;;5027720;28;20151;-62
2021/07/27 12:51:39;;;;;;;2.40;2.15;;;;;;;;;;5027182;28;20112;-64
2021/07/27 12:54:05;;;;;;;3.28;2.58;;;;;;;;;;5027370;28;20032;-64
2021/07/27 12:56:34;;;;;;;2.78;2.55;;;;;;;;;;5027541;28;20388;-64
2021/07/27 12:59:00;;;;;;;2.83;2.35;;;;;;;;;;5027587;28;20114;-65
2021/07/27 13:01:26;;;;;;;3.15;2.35;;;;;;;;;;5026809;28;20037;-64
2021/07/27 13:03:52;;;;;;;2.33;2.10;;;;;;;;;;5027305;28;20029;-64
2021/07/27 13:06:18;;;;;;;2.33;2.13;;;;;;;;;;5027892;28;20036;-63
2021/07/27 13:08:44;;;;;;;2.53;2.30;;;;;;;;;;5027016;28;20107;-63
2021/07/27 13:11:11;;;;;;;4.38;2.83;;;;;;;;;;5027076;28;20057;-63
2021/07/27 13:13:38;;;;;;;5.07;3.17;;;;;;;;;;5027042;28;20523;-64
2021/07/27 13:16:04;;;;;;;3.65;2.75;;;;;;;;;;5027036;28;20069;-64
2021/07/27 13:18:30;;;;;;;2.75;2.55;;;;;;;;;;5026937;28;20518;-64
2021/07/27 13:20:56;;;;;;;2.47;2.28;;;;;;;;;;5026863;28;20037;-64
2021/07/27 13:23:23;;;;;;;2.50;2.30;;;;;;;;;;5025818;28;20040;-64
2021/07/27 13:25:49;;;;;;;2.72;1.95;;;;;;;;;;5027992;28;20038;-63
2021/07/27 13:28:15;;;;;;;2.60;2.40;;;;;;;;;;5026758;28;20025;-62
2021/07/27 13:30:41;;;;;;;2.50;2.28;;;;;;;;;;5025985;28;20124;-63
2021/07/27 13:33:07;;;;;;;3.25;2.53;;;;;;;;;;5025214;28;20180;-63
2021/07/27 13:35:34;;;;;;;3.10;2.03;;;;;;;;;;5026100;28;20571;-64
2021/07/27 13:38:01;;;;;;;2.72;1.77;;;;;;;;;;5026264;28;20411;-65
2021/07/27 13:40:27;;;;;;;2.03;1.83;;;;;;;;;;5026695;28;20034;-63
2021/07/27 13:42:54;;;;;;;2.30;1.80;;;;;;;;;;5026456;28;20573;-63
2021/07/27 13:45:20;;;;;;;2.28;2.00;;;;;;;;;;5026813;28;20029;-63
2021/07/27 13:47:46;;;;;;;2.60;2.05;;;;;;;;;;5026971;28;20116;-63
2021/07/27 13:50:13;;;;;;;2.20;2.00;;;;;;;;;;5026159;28;20040;-63
2021/07/27 13:52:39;;;;;;;1.77;1.67;;;;;;;;;;5025704;28;20025;-64
2021/07/27 13:55:05;;;;;;;1.95;1.40;;;;;;;;;;5025563;28;20028;-64
2021/07/27 13:57:31;;;;;;;2.10;1.90;;;;;;;;;;5025820;28;20022;-64
2021/07/27 13:59:57;;;;;;;3.00;2.35;;;;;;;;;;5026141;28;20593;-63
2021/07/27 14:02:23;;;;;;;2.90;2.15;;;;;;;;;;5025731;28;20047;-64
2021/07/27 14:04:49;;;;;;;2.45;1.90;;;;;;;;;;5026620;28;20029;-63
2021/07/27 14:07:15;;;;;;;2.30;2.10;;;;;;;;;;5026253;28;20060;-63
2021/07/27 14:09:41;;;;;;;2.08;1.90;;;;;;;;;;5025535;28;20523;-64
2021/07/27 14:12:07;;;;;;;1.95;1.75;;;;;;;;;;5025690;28;20044;-63
2021/07/27 14:14:33;;;;;;;1.85;1.75;;;;;;;;;;5025511;28;20280;-63
2021/07/27 14:17:01;;;;;;;2.10;1.92;;;;;;;;;;5025969;28;20211;-62
2021/07/27 14:19:28;;;;;;;1.92;1.70;;;;;;;;;;5025323;28;20030;-63
2021/07/27 14:21:54;;;;;;;1.67;1.58;;;;;;;;;;5025706;28;20036;-63
2021/07/27 14:24:20;;;;;;;1.60;1.50;;;;;;;;;;5025795;28;20086;-63
2021/07/27 14:26:46;;;;;;;1.85;1.75;;;;;;;;;;5025900;28;20037;-63
2021/07/27 14:29:12;;;;;;;2.17;1.83;;;;;;;;;;5025614;28;20033;-64
2021/07/27 14:31:38;;;;;;;1.60;1.50;;;;;;;;;;5024695;28;20100;-64
2021/07/27 14:34:04;;;;;;;1.90;1.80;;;;;;;;;;5025461;28;20108;-64
2021/07/27 14:36:30;;;;;;;2.33;2.00;;;;;;;;;;5024969;28;20082;-64
2021/07/27 14:38:56;;;;;;;1.83;1.73;;;;;;;;;;5026195;28;20033;-64
2021/07/27 14:41:22;;;;;;;1.83;1.70;;;;;;;;;;5031095;28;20138;-63
2021/07/27 14:43:48;;;;;;;1.70;1.60;;;;;;;;;;5036727;28;20061;-63
2021/07/27 14:46:14;;;;;;;1.60;1.50;;;;;;;;;;5026368;28;20100;-62
2021/07/27 14:48:41;;;;;;;1.80;1.70;;;;;;;;;;5039695;28;20033;-63
2021/07/27 14:51:08;;;;;;;1.77;1.20;;;;;;;;;;5043940;28;20036;-63
2021/07/27 14:53:34;;;;;;;1.63;1.52;;;;;;;;;;5027846;28;20037;-63
2021/07/27 14:56:00;;;;;;;1.67;1.52;;;;;;;;;;5033672;28;20028;-62
2021/07/27 14:58:28;;;;;;;1.52;1.42;;;;;;;;;;5025995;28;20033;-63
2021/07/27 15:00:54;;;;;;;1.50;1.40;;;;;;;;;;5031388;28;20156;-64
2021/07/27 15:03:20;;;;;;;1.40;1.30;;;;;;;;;;5027735;28;20554;-62
2021/07/27 15:05:46;;;;;;;1.40;1.30;;;;;;;;;;5023874;28;20021;-63
2021/07/27 15:08:12;;;;;;;1.90;1.52;;;;;;;;;;5023198;28;20041;-63
2021/07/27 15:10:38;;;;;;;1.48;1.38;;;;;;;;;;5022986;28;20108;-63
2021/07/27 15:13:04;;;;;;;1.40;1.30;;;;;;;;;;5024942;28;20099;-63